sensor_id;sensor_type;location;lat;lon;timestamp;P1;durP1;ratioP1;P2;durP2;ratioP2
61460;SDS011;47325;50.506;4.472;2023-07-20T00:00:21;2.00;;;1.20;;
61460;SDS011;47325;50.506;4.472;2023-07-20T00:06:06;3.20;;;1.30;;
61460;SDS011;47325;50.506;4.472;2023-07-20T00:11:52;2.90;;;1.30;;
61460;SDS011;47325;50.506;4.472;2023-07-20T00:17:36;2.00;;;1.20;;
61460;SDS011;47325;50.506;4.472;2023-07-20T00:23:21;2.20;;;1.20;;
61460;SDS011;47325;50.506;4.472;2023-07-20T00:29:06;2.60;;;1.20;;
61460;SDS011;47325;50.506;4.472;2023-07-20T00:34:52;2.90;;;1.40;;
61460;SDS011;47325;50.506;4.472;2023-07-20T00:40:40;1.90;;;1.20;;
61460;SDS011;47325;50.506;4.472;2023-07-20T00:46:26;2.70;;;1.40;;
61460;SDS011;47325;50.506;4.472;2023-07-20T00:52:11;2.40;;;1.30;;
61460;SDS011;47325;50.506;4.472;2023-07-20T00:57:57;1.60;;;1.00;;
61460;SDS011;47325;50.506;4.472;2023-07-20T01:03:43;2.00;;;1.20;;
61460;SDS011;47325;50.506;4.472;2023-07-20T01:09:28;2.00;;;1.10;;
61460;SDS011;47325;50.506;4.472;2023-07-20T01:15:16;3.00;;;1.20;;
61460;SDS011;47325;50.506;4.472;2023-07-20T01:21:01;3.70;;;1.40;;
61460;SDS011;47325;50.506;4.472;2023-07-20T01:27:03;2.10;;;1.30;;
61460;SDS011;47325;50.506;4.472;2023-07-20T01:32:49;2.80;;;1.40;;
61460;SDS011;47325;50.506;4.472;2023-07-20T01:38:35;3.80;;;1.40;;
61460;SDS011;47325;50.506;4.472;2023-07-20T01:44:20;2.60;;;1.40;;
61460;SDS011;47325;50.506;4.472;2023-07-20T01:50:05;2.00;;;1.10;;
61460;SDS011;47325;50.506;4.472;2023-07-20T01:55:51;2.30;;;1.30;;
61460;SDS011;47325;50.506;4.472;2023-07-20T02:01:36;3.60;;;1.40;;
61460;SDS011;47325;50.506;4.472;2023-07-20T02:07:21;2.80;;;1.40;;
61460;SDS011;47325;50.506;4.472;2023-07-20T02:13:05;4.10;;;1.60;;
61460;SDS011;47325;50.506;4.472;2023-07-20T02:18:49;4.20;;;1.40;;
61460;SDS011;47325;50.506;4.472;2023-07-20T02:24:33;4.20;;;1.90;;
61460;SDS011;47325;50.506;4.472;2023-07-20T02:30:18;4.60;;;1.60;;
61460;SDS011;47325;50.506;4.472;2023-07-20T02:36:02;2.90;;;1.40;;
61460;SDS011;47325;50.506;4.472;2023-07-20T02:41:46;5.00;;;1.90;;
61460;SDS011;47325;50.506;4.472;2023-07-20T02:47:31;5.00;;;1.60;;
61460;SDS011;47325;50.506;4.472;2023-07-20T02:53:16;5.70;;;1.60;;
61460;SDS011;47325;50.506;4.472;2023-07-20T02:59:00;3.60;;;1.60;;
61460;SDS011;47325;50.506;4.472;2023-07-20T03:04:45;3.70;;;1.60;;
61460;SDS011;47325;50.506;4.472;2023-07-20T03:10:29;3.10;;;1.70;;
61460;SDS011;47325;50.506;4.472;2023-07-20T03:16:15;4.20;;;1.90;;
61460;SDS011;47325;50.506;4.472;2023-07-20T03:22:00;2.80;;;1.60;;
61460;SDS011;47325;50.506;4.472;2023-07-20T03:27:44;4.50;;;1.90;;
61460;SDS011;47325;50.506;4.472;2023-07-20T03:33:28;5.20;;;1.70;;
61460;SDS011;47325;50.506;4.472;2023-07-20T03:39:13;2.60;;;1.50;;
61460;SDS011;47325;50.506;4.472;2023-07-20T03:44:57;3.90;;;1.70;;
61460;SDS011;47325;50.506;4.472;2023-07-20T03:50:43;2.80;;;1.70;;
61460;SDS011;47325;50.506;4.472;2023-07-20T03:56:27;5.10;;;1.90;;
61460;SDS011;47325;50.506;4.472;2023-07-20T04:02:12;5.20;;;1.80;;
61460;SDS011;47325;50.506;4.472;2023-07-20T04:07:56;5.10;;;1.90;;
61460;SDS011;47325;50.506;4.472;2023-07-20T04:13:40;3.80;;;1.80;;
61460;SDS011;47325;50.506;4.472;2023-07-20T04:19:24;3.40;;;1.70;;
61460;SDS011;47325;50.506;4.472;2023-07-20T04:25:09;4.30;;;1.70;;
61460;SDS011;47325;50.506;4.472;2023-07-20T04:30:53;3.80;;;1.70;;
61460;SDS011;47325;50.506;4.472;2023-07-20T04:36:38;3.50;;;1.70;;
61460;SDS011;47325;50.506;4.472;2023-07-20T04:42:23;3.70;;;1.60;;
61460;SDS011;47325;50.506;4.472;2023-07-20T04:48:09;3.30;;;1.80;;
61460;SDS011;47325;50.506;4.472;2023-07-20T04:53:53;2.60;;;1.60;;
61460;SDS011;47325;50.506;4.472;2023-07-20T04:59:37;4.10;;;1.80;;
61460;SDS011;47325;50.506;4.472;2023-07-20T05:05:21;4.30;;;1.90;;
61460;SDS011;47325;50.506;4.472;2023-07-20T05:11:06;3.50;;;1.60;;
61460;SDS011;47325;50.506;4.472;2023-07-20T05:16:50;3.80;;;1.90;;
61460;SDS011;47325;50.506;4.472;2023-07-20T05:22:35;3.40;;;1.70;;
61460;SDS011;47325;50.506;4.472;2023-07-20T05:28:19;3.90;;;1.80;;
61460;SDS011;47325;50.506;4.472;2023-07-20T05:34:03;3.70;;;1.80;;
61460;SDS011;47325;50.506;4.472;2023-07-20T05:39:48;5.00;;;2.10;;
61460;SDS011;47325;50.506;4.472;2023-07-20T05:45:32;4.90;;;1.90;;
61460;SDS011;47325;50.506;4.472;2023-07-20T05:51:17;9.10;;;4.30;;
61460;SDS011;47325;50.506;4.472;2023-07-20T05:57:02;9.80;;;4.70;;
61460;SDS011;47325;50.506;4.472;2023-07-20T06:02:46;12.40;;;5.50;;
61460;SDS011;47325;50.506;4.472;2023-07-20T06:08:31;12.50;;;5.80;;
61460;SDS011;47325;50.506;4.472;2023-07-20T06:14:15;12.80;;;5.80;;
61460;SDS011;47325;50.506;4.472;2023-07-20T06:20:00;11.70;;;6.70;;
61460;SDS011;47325;50.506;4.472;2023-07-20T06:25:45;11.20;;;6.60;;
61460;SDS011;47325;50.506;4.472;2023-07-20T06:31:29;16.90;;;7.90;;
61460;SDS011;47325;50.506;4.472;2023-07-20T06:37:20;12.60;;;6.90;;
61460;SDS011;47325;50.506;4.472;2023-07-20T06:43:04;13.60;;;7.30;;
61460;SDS011;47325;50.506;4.472;2023-07-20T06:49:00;9.40;;;6.50;;
61460;SDS011;47325;50.506;4.472;2023-07-20T06:54:56;9.90;;;6.70;;
61460;SDS011;47325;50.506;4.472;2023-07-20T07:00:47;9.80;;;6.60;;
61460;SDS011;47325;50.506;4.472;2023-07-20T07:06:31;10.30;;;6.50;;
61460;SDS011;47325;50.506;4.472;2023-07-20T07:12:16;8.00;;;5.70;;
61460;SDS011;47325;50.506;4.472;2023-07-20T07:18:00;7.30;;;4.70;;
61460;SDS011;47325;50.506;4.472;2023-07-20T07:23:45;6.20;;;4.60;;
61460;SDS011;47325;50.506;4.472;2023-07-20T07:29:30;7.30;;;4.90;;
61460;SDS011;47325;50.506;4.472;2023-07-20T07:35:14;6.70;;;5.00;;
61460;SDS011;47325;50.506;4.472;2023-07-20T07:40:59;6.30;;;4.90;;
61460;SDS011;47325;50.506;4.472;2023-07-20T07:46:43;7.00;;;4.50;;
61460;SDS011;47325;50.506;4.472;2023-07-20T07:52:28;6.80;;;4.30;;
61460;SDS011;47325;50.506;4.472;2023-07-20T07:58:12;6.90;;;4.30;;
61460;SDS011;47325;50.506;4.472;2023-07-20T08:03:59;5.80;;;3.80;;
61460;SDS011;47325;50.506;4.472;2023-07-20T08:09:44;6.20;;;3.40;;
61460;SDS011;47325;50.506;4.472;2023-07-20T08:15:29;5.30;;;3.50;;
61460;SDS011;47325;50.506;4.472;2023-07-20T08:21:13;4.20;;;3.40;;
61460;SDS011;47325;50.506;4.472;2023-07-20T08:26:58;4.80;;;3.50;;
61460;SDS011;47325;50.506;4.472;2023-07-20T08:32:42;4.60;;;3.10;;
61460;SDS011;47325;50.506;4.472;2023-07-20T08:38:27;4.60;;;3.00;;
61460;SDS011;47325;50.506;4.472;2023-07-20T08:44:11;3.50;;;3.00;;
61460;SDS011;47325;50.506;4.472;2023-07-20T08:49:56;3.50;;;2.80;;
61460;SDS011;47325;50.506;4.472;2023-07-20T08:55:40;3.80;;;2.40;;
61460;SDS011;47325;50.506;4.472;2023-07-20T09:01:26;3.90;;;2.60;;
61460;SDS011;47325;50.506;4.472;2023-07-20T09:07:11;3.70;;;2.90;;
61460;SDS011;47325;50.506;4.472;2023-07-20T09:12:56;3.50;;;2.60;;
61460;SDS011;47325;50.506;4.472;2023-07-20T09:18:40;4.10;;;2.40;;
61460;SDS011;47325;50.506;4.472;2023-07-20T09:24:28;3.20;;;2.70;;
61460;SDS011;47325;50.506;4.472;2023-07-20T09:30:13;3.70;;;2.70;;
61460;SDS011;47325;50.506;4.472;2023-07-20T09:36:05;4.10;;;2.20;;
61460;SDS011;47325;50.506;4.472;2023-07-20T09:42:10;3.40;;;2.00;;
61460;SDS011;47325;50.506;4.472;2023-07-20T09:48:07;2.70;;;2.00;;
61460;SDS011;47325;50.506;4.472;2023-07-20T09:54:03;4.20;;;2.10;;
61460;SDS011;47325;50.506;4.472;2023-07-20T09:59:48;2.50;;;1.70;;
61460;SDS011;47325;50.506;4.472;2023-07-20T10:05:32;2.80;;;1.70;;
61460;SDS011;47325;50.506;4.472;2023-07-20T10:11:19;2.70;;;1.70;;
61460;SDS011;47325;50.506;4.472;2023-07-20T10:17:05;3.30;;;1.50;;
61460;SDS011;47325;50.506;4.472;2023-07-20T10:22:51;2.10;;;1.30;;
61460;SDS011;47325;50.506;4.472;2023-07-20T10:28:38;3.20;;;1.30;;
61460;SDS011;47325;50.506;4.472;2023-07-20T10:34:23;3.70;;;1.30;;
61460;SDS011;47325;50.506;4.472;2023-07-20T10:46:02;3.20;;;1.10;;
61460;SDS011;47325;50.506;4.472;2023-07-20T10:51:47;2.80;;;1.20;;
61460;SDS011;47325;50.506;4.472;2023-07-20T10:57:32;2.20;;;1.10;;
61460;SDS011;47325;50.506;4.472;2023-07-20T11:03:16;3.50;;;1.30;;
61460;SDS011;47325;50.506;4.472;2023-07-20T11:09:17;2.20;;;1.10;;
61460;SDS011;47325;50.506;4.472;2023-07-20T11:15:01;3.50;;;1.30;;
61460;SDS011;47325;50.506;4.472;2023-07-20T11:20:49;2.80;;;1.10;;
61460;SDS011;47325;50.506;4.472;2023-07-20T11:32:27;2.40;;;1.00;;
61460;SDS011;47325;50.506;4.472;2023-07-20T11:38:11;3.10;;;1.10;;
61460;SDS011;47325;50.506;4.472;2023-07-20T11:43:56;2.30;;;1.10;;
61460;SDS011;47325;50.506;4.472;2023-07-20T11:49:41;3.00;;;1.00;;
61460;SDS011;47325;50.506;4.472;2023-07-20T11:55:25;2.20;;;1.00;;
61460;SDS011;47325;50.506;4.472;2023-07-20T12:01:11;3.20;;;1.10;;
61460;SDS011;47325;50.506;4.472;2023-07-20T12:06:56;2.00;;;1.20;;
61460;SDS011;47325;50.506;4.472;2023-07-20T12:12:41;1.90;;;0.90;;
61460;SDS011;47325;50.506;4.472;2023-07-20T12:18:34;2.60;;;1.00;;
61460;SDS011;47325;50.506;4.472;2023-07-20T12:24:17;2.00;;;0.90;;
61460;SDS011;47325;50.506;4.472;2023-07-20T12:30:02;1.70;;;0.90;;
61460;SDS011;47325;50.506;4.472;2023-07-20T12:35:46;2.20;;;1.00;;
61460;SDS011;47325;50.506;4.472;2023-07-20T12:41:31;1.80;;;0.90;;
61460;SDS011;47325;50.506;4.472;2023-07-20T12:47:15;1.90;;;1.00;;
61460;SDS011;47325;50.506;4.472;2023-07-20T12:53:00;2.10;;;1.10;;
61460;SDS011;47325;50.506;4.472;2023-07-20T12:58:44;3.40;;;1.10;;
61460;SDS011;47325;50.506;4.472;2023-07-20T13:04:28;2.80;;;1.20;;
61460;SDS011;47325;50.506;4.472;2023-07-20T13:10:13;2.10;;;1.10;;
61460;SDS011;47325;50.506;4.472;2023-07-20T13:15:57;1.50;;;1.00;;
61460;SDS011;47325;50.506;4.472;2023-07-20T13:21:42;1.70;;;1.00;;
61460;SDS011;47325;50.506;4.472;2023-07-20T13:27:27;4.50;;;1.50;;
61460;SDS011;47325;50.506;4.472;2023-07-20T13:33:12;3.50;;;1.40;;
61460;SDS011;47325;50.506;4.472;2023-07-20T13:39:02;2.40;;;1.40;;
61460;SDS011;47325;50.506;4.472;2023-07-20T13:44:46;2.60;;;1.40;;
61460;SDS011;47325;50.506;4.472;2023-07-20T13:50:31;1.70;;;1.20;;
61460;SDS011;47325;50.506;4.472;2023-07-20T13:56:34;3.50;;;1.40;;
61460;SDS011;47325;50.506;4.472;2023-07-20T14:02:19;3.80;;;1.40;;
61460;SDS011;47325;50.506;4.472;2023-07-20T14:08:15;2.90;;;1.20;;
61460;SDS011;47325;50.506;4.472;2023-07-20T14:13:59;3.00;;;1.10;;
61460;SDS011;47325;50.506;4.472;2023-07-20T14:19:43;2.70;;;1.10;;
61460;SDS011;47325;50.506;4.472;2023-07-20T14:25:28;1.70;;;1.10;;
61460;SDS011;47325;50.506;4.472;2023-07-20T14:31:12;2.20;;;1.10;;
61460;SDS011;47325;50.506;4.472;2023-07-20T14:36:59;1.80;;;1.00;;
61460;SDS011;47325;50.506;4.472;2023-07-20T14:42:44;3.10;;;1.00;;
61460;SDS011;47325;50.506;4.472;2023-07-20T14:48:28;2.90;;;1.10;;
61460;SDS011;47325;50.506;4.472;2023-07-20T14:54:13;3.40;;;1.10;;
61460;SDS011;47325;50.506;4.472;2023-07-20T14:59:57;2.00;;;1.00;;
61460;SDS011;47325;50.506;4.472;2023-07-20T15:05:42;3.60;;;1.10;;
61460;SDS011;47325;50.506;4.472;2023-07-20T15:11:26;2.60;;;1.20;;
61460;SDS011;47325;50.506;4.472;2023-07-20T15:17:10;2.10;;;1.10;;
61460;SDS011;47325;50.506;4.472;2023-07-20T15:22:55;2.20;;;0.90;;
61460;SDS011;47325;50.506;4.472;2023-07-20T15:28:39;1.80;;;0.90;;
61460;SDS011;47325;50.506;4.472;2023-07-20T15:34:25;1.80;;;0.90;;
61460;SDS011;47325;50.506;4.472;2023-07-20T15:40:11;1.90;;;0.80;;
61460;SDS011;47325;50.506;4.472;2023-07-20T15:46:07;3.40;;;0.90;;
61460;SDS011;47325;50.506;4.472;2023-07-20T15:51:51;2.10;;;0.90;;
61460;SDS011;47325;50.506;4.472;2023-07-20T15:57:38;1.60;;;0.80;;
61460;SDS011;47325;50.506;4.472;2023-07-20T16:03:22;2.60;;;1.00;;
61460;SDS011;47325;50.506;4.472;2023-07-20T16:09:12;4.10;;;1.00;;
61460;SDS011;47325;50.506;4.472;2023-07-20T16:14:57;4.00;;;0.90;;
61460;SDS011;47325;50.506;4.472;2023-07-20T16:20:48;2.60;;;1.40;;
61460;SDS011;47325;50.506;4.472;2023-07-20T16:26:33;2.30;;;1.20;;
61460;SDS011;47325;50.506;4.472;2023-07-20T16:32:18;2.00;;;1.30;;
61460;SDS011;47325;50.506;4.472;2023-07-20T16:38:03;5.60;;;1.40;;
61460;SDS011;47325;50.506;4.472;2023-07-20T16:43:54;4.10;;;1.30;;
61460;SDS011;47325;50.506;4.472;2023-07-20T16:49:47;1.80;;;1.00;;
61460;SDS011;47325;50.506;4.472;2023-07-20T16:55:31;2.20;;;1.00;;
61460;SDS011;47325;50.506;4.472;2023-07-20T17:01:15;1.60;;;0.80;;
61460;SDS011;47325;50.506;4.472;2023-07-20T17:06:59;1.80;;;0.90;;
61460;SDS011;47325;50.506;4.472;2023-07-20T17:12:44;2.00;;;0.90;;
61460;SDS011;47325;50.506;4.472;2023-07-20T17:18:28;1.50;;;0.90;;
61460;SDS011;47325;50.506;4.472;2023-07-20T17:24:12;1.70;;;1.10;;
61460;SDS011;47325;50.506;4.472;2023-07-20T17:30:10;2.80;;;1.10;;
61460;SDS011;47325;50.506;4.472;2023-07-20T17:35:55;2.20;;;1.10;;
61460;SDS011;47325;50.506;4.472;2023-07-20T17:41:54;2.00;;;1.10;;
61460;SDS011;47325;50.506;4.472;2023-07-20T17:47:38;1.60;;;1.10;;
61460;SDS011;47325;50.506;4.472;2023-07-20T17:53:23;3.00;;;1.30;;
61460;SDS011;47325;50.506;4.472;2023-07-20T17:59:07;2.20;;;1.40;;
61460;SDS011;47325;50.506;4.472;2023-07-20T18:04:51;1.80;;;1.30;;
61460;SDS011;47325;50.506;4.472;2023-07-20T18:10:36;1.80;;;1.30;;
61460;SDS011;47325;50.506;4.472;2023-07-20T18:16:21;1.90;;;1.20;;
61460;SDS011;47325;50.506;4.472;2023-07-20T18:22:05;1.70;;;1.20;;
61460;SDS011;47325;50.506;4.472;2023-07-20T18:27:49;2.70;;;1.00;;
61460;SDS011;47325;50.506;4.472;2023-07-20T18:33:34;1.40;;;1.00;;
61460;SDS011;47325;50.506;4.472;2023-07-20T18:39:18;5.90;;;1.30;;
61460;SDS011;47325;50.506;4.472;2023-07-20T18:45:02;3.10;;;1.60;;
61460;SDS011;47325;50.506;4.472;2023-07-20T18:50:47;3.70;;;1.20;;
61460;SDS011;47325;50.506;4.472;2023-07-20T18:56:31;2.20;;;1.20;;
61460;SDS011;47325;50.506;4.472;2023-07-20T19:02:15;2.50;;;1.20;;
61460;SDS011;47325;50.506;4.472;2023-07-20T19:08:00;3.00;;;1.40;;
61460;SDS011;47325;50.506;4.472;2023-07-20T19:13:44;1.70;;;1.40;;
61460;SDS011;47325;50.506;4.472;2023-07-20T19:19:28;2.50;;;1.80;;
61460;SDS011;47325;50.506;4.472;2023-07-20T19:25:13;3.70;;;1.60;;
61460;SDS011;47325;50.506;4.472;2023-07-20T19:30:57;1.80;;;1.40;;
61460;SDS011;47325;50.506;4.472;2023-07-20T19:36:42;1.90;;;1.40;;
61460;SDS011;47325;50.506;4.472;2023-07-20T19:42:26;2.20;;;1.30;;
61460;SDS011;47325;50.506;4.472;2023-07-20T19:48:10;3.10;;;1.60;;
61460;SDS011;47325;50.506;4.472;2023-07-20T19:53:55;1.40;;;1.20;;
61460;SDS011;47325;50.506;4.472;2023-07-20T19:59:51;2.80;;;1.60;;
61460;SDS011;47325;50.506;4.472;2023-07-20T20:05:35;1.80;;;1.40;;
61460;SDS011;47325;50.506;4.472;2023-07-20T20:11:19;1.30;;;1.20;;
61460;SDS011;47325;50.506;4.472;2023-07-20T20:17:04;1.70;;;1.40;;
61460;SDS011;47325;50.506;4.472;2023-07-20T20:22:49;2.10;;;1.40;;
61460;SDS011;47325;50.506;4.472;2023-07-20T20:34:17;2.30;;;1.50;;
61460;SDS011;47325;50.506;4.472;2023-07-20T20:40:01;1.80;;;1.50;;
61460;SDS011;47325;50.506;4.472;2023-07-20T20:45:46;1.40;;;1.30;;
61460;SDS011;47325;50.506;4.472;2023-07-20T20:51:30;2.60;;;1.50;;
61460;SDS011;47325;50.506;4.472;2023-07-20T20:57:14;2.60;;;1.50;;
61460;SDS011;47325;50.506;4.472;2023-07-20T21:02:59;1.70;;;1.40;;
61460;SDS011;47325;50.506;4.472;2023-07-20T21:08:43;1.70;;;1.40;;
61460;SDS011;47325;50.506;4.472;2023-07-20T21:14:28;1.80;;;1.30;;
61460;SDS011;47325;50.506;4.472;2023-07-20T21:20:12;1.70;;;1.30;;
61460;SDS011;47325;50.506;4.472;2023-07-20T21:25:56;1.60;;;1.30;;
61460;SDS011;47325;50.506;4.472;2023-07-20T21:31:40;1.90;;;1.70;;
61460;SDS011;47325;50.506;4.472;2023-07-20T21:37:25;1.90;;;1.30;;
61460;SDS011;47325;50.506;4.472;2023-07-20T21:43:09;2.30;;;1.50;;
61460;SDS011;47325;50.506;4.472;2023-07-20T21:48:53;2.00;;;1.50;;
61460;SDS011;47325;50.506;4.472;2023-07-20T21:54:37;1.80;;;1.40;;
61460;SDS011;47325;50.506;4.472;2023-07-20T22:00:22;2.10;;;1.60;;
61460;SDS011;47325;50.506;4.472;2023-07-20T22:06:06;1.70;;;1.30;;
61460;SDS011;47325;50.506;4.472;2023-07-20T22:11:50;1.50;;;1.40;;
61460;SDS011;47325;50.506;4.472;2023-07-20T22:17:35;2.50;;;1.40;;
61460;SDS011;47325;50.506;4.472;2023-07-20T22:23:19;2.90;;;1.50;;
61460;SDS011;47325;50.506;4.472;2023-07-20T22:29:04;1.40;;;1.30;;
61460;SDS011;47325;50.506;4.472;2023-07-20T22:34:48;1.80;;;1.60;;
61460;SDS011;47325;50.506;4.472;2023-07-20T22:40:32;1.60;;;1.50;;
61460;SDS011;47325;50.506;4.472;2023-07-20T22:46:17;2.20;;;1.70;;
61460;SDS011;47325;50.506;4.472;2023-07-20T22:52:01;1.70;;;1.60;;
61460;SDS011;47325;50.506;4.472;2023-07-20T22:57:46;2.30;;;1.60;;
61460;SDS011;47325;50.506;4.472;2023-07-20T23:03:30;2.10;;;1.30;;
61460;SDS011;47325;50.506;4.472;2023-07-20T23:09:15;2.60;;;1.70;;
61460;SDS011;47325;50.506;4.472;2023-07-20T23:15:00;2.50;;;1.40;;
61460;SDS011;47325;50.506;4.472;2023-07-20T23:20:44;1.50;;;1.40;;
61460;SDS011;47325;50.506;4.472;2023-07-20T23:26:28;2.80;;;1.80;;
61460;SDS011;47325;50.506;4.472;2023-07-20T23:32:12;2.00;;;1.70;;
61460;SDS011;47325;50.506;4.472;2023-07-20T23:37:57;2.70;;;1.70;;
61460;SDS011;47325;50.506;4.472;2023-07-20T23:43:41;1.80;;;1.60;;
61460;SDS011;47325;50.506;4.472;2023-07-20T23:49:26;1.80;;;1.70;;
61460;SDS011;47325;50.506;4.472;2023-07-20T23:55:12;1.80;;;1.60;;
